createdAt,value
2023-02-11T00:01:22.286Z,9.90
2023-02-11T00:03:50.052Z,9.80
2023-02-11T00:06:18.293Z,9.50
2023-02-11T00:08:46.345Z,9.60
2023-02-11T00:11:15.667Z,9.80
2023-02-11T00:13:44.025Z,9.80
2023-02-11T00:16:15.622Z,10.00
2023-02-11T00:18:43.804Z,9.70
2023-02-11T00:21:14.471Z,9.90
2023-02-11T00:23:42.464Z,9.80
2023-02-11T00:26:13.624Z,10.10
2023-02-11T00:28:41.583Z,10.00
2023-02-11T00:31:09.505Z,9.70
2023-02-11T00:33:38.776Z,9.80
2023-02-11T00:36:07.547Z,9.70
2023-02-11T00:38:35.326Z,9.90
2023-02-11T00:41:03.051Z,10.10
2023-02-11T00:43:30.878Z,10.00
2023-02-11T00:45:58.544Z,10.20
2023-02-11T00:48:26.350Z,10.30
2023-02-11T00:50:55.700Z,10.30
2023-02-11T00:53:23.433Z,10.40
2023-02-11T00:55:52.494Z,10.10
2023-02-11T00:58:20.421Z,10.00
2023-02-11T01:00:48.328Z,10.00
2023-02-11T01:03:16.172Z,9.80
2023-02-11T01:05:43.961Z,10.10
2023-02-11T01:08:13.493Z,10.10
2023-02-11T01:10:41.263Z,10.10
2023-02-11T01:13:09.018Z,9.90
2023-02-11T01:15:36.834Z,10.20
2023-02-11T01:18:06.201Z,10.10
2023-02-11T01:20:34.323Z,10.20
2023-02-11T01:23:02.119Z,10.50
2023-02-11T01:25:31.265Z,10.10
2023-02-11T01:27:58.982Z,10.10
2023-02-11T01:30:26.772Z,10.10
2023-02-11T01:32:54.714Z,10.10
2023-02-11T01:35:22.464Z,9.60
2023-02-11T01:37:50.196Z,10.00
2023-02-11T01:40:18.831Z,10.00
2023-02-11T01:42:50.914Z,10.00
2023-02-11T01:45:56.644Z,9.90
2023-02-11T01:48:28.398Z,9.60
2023-02-11T01:51:00.921Z,10.00
2023-02-11T01:53:47.430Z,9.70
2023-02-11T01:56:33.789Z,9.50
2023-02-11T01:59:08.709Z,9.50
2023-02-11T02:01:38.922Z,9.40
2023-02-11T02:04:08.374Z,9.60
2023-02-11T02:06:42.044Z,9.40
2023-02-11T02:09:16.577Z,9.30
2023-02-11T02:11:44.469Z,9.30
2023-02-11T02:14:13.538Z,9.40
2023-02-11T02:16:41.442Z,9.70
2023-02-11T02:19:33.793Z,9.90
2023-02-11T02:22:55.690Z,10.10
2023-02-11T02:25:49.213Z,10.00
2023-02-11T02:28:35.380Z,9.80
2023-02-11T02:31:28.223Z,9.70
2023-02-11T02:34:01.990Z,9.80
2023-02-11T02:36:36.456Z,10.00
2023-02-11T02:39:10.096Z,9.80
2023-02-11T02:41:39.996Z,10.00
2023-02-11T02:44:08.929Z,9.60
2023-02-11T02:46:37.644Z,9.90
2023-02-11T02:49:11.114Z,10.00
2023-02-11T02:52:01.609Z,10.10
2023-02-11T02:55:09.190Z,9.90
2023-02-11T02:57:45.533Z,9.90
2023-02-11T03:00:20.193Z,9.70
2023-02-11T03:02:59.347Z,10.10
2023-02-11T03:05:35.258Z,10.00
2023-02-11T03:08:09.253Z,10.10
2023-02-11T03:10:39.404Z,10.10
2023-02-11T03:13:08.237Z,10.30
2023-02-11T03:15:39.856Z,9.80
2023-02-11T03:18:12.889Z,10.20
2023-02-11T03:20:44.479Z,9.90
2023-02-11T03:23:14.845Z,10.10
2023-02-11T03:25:46.867Z,10.20
2023-02-11T03:28:19.133Z,10.00
2023-02-11T03:30:50.306Z,10.00
2023-02-11T03:33:25.139Z,10.10
2023-02-11T03:35:57.551Z,10.10
2023-02-11T03:38:30.953Z,10.10
2023-02-11T03:41:00.115Z,10.10
2023-02-11T03:43:31.958Z,10.40
2023-02-11T03:46:04.119Z,10.40
2023-02-11T03:48:34.023Z,10.30
2023-02-11T03:51:07.097Z,10.20
2023-02-11T03:53:34.864Z,10.00
2023-02-11T03:56:08.797Z,10.40
2023-02-11T03:58:36.522Z,10.40
2023-02-11T04:01:05.247Z,10.20
2023-02-11T04:03:33.477Z,10.30
2023-02-11T04:06:01.250Z,10.40
2023-02-11T04:08:31.614Z,10.30
2023-02-11T04:10:59.728Z,10.40
2023-02-11T04:13:28.292Z,10.30
2023-02-11T04:15:56.032Z,10.30
2023-02-11T04:18:23.746Z,10.40
2023-02-11T04:20:53.809Z,10.30
2023-02-11T04:23:21.616Z,10.20
2023-02-11T04:25:51.761Z,10.40
2023-02-11T04:28:22.595Z,10.20
2023-02-11T04:30:50.776Z,10.30
2023-02-11T04:33:18.687Z,9.90
2023-02-11T04:35:46.370Z,10.10
2023-02-11T04:38:14.370Z,10.10
2023-02-11T04:40:42.256Z,10.10
2023-02-11T04:43:11.351Z,10.10
2023-02-11T04:45:39.148Z,10.30
2023-02-11T04:48:07.199Z,10.30
2023-02-11T04:50:34.954Z,10.50
2023-02-11T04:53:02.760Z,10.50
2023-02-11T04:55:30.527Z,10.60
2023-02-11T04:57:58.215Z,10.60
2023-02-11T05:00:27.381Z,10.50
2023-02-11T05:02:55.094Z,10.30
2023-02-11T05:05:22.830Z,10.60
2023-02-11T05:07:50.535Z,10.50
2023-02-11T05:10:18.410Z,10.30
2023-02-11T05:12:46.131Z,10.70
2023-02-11T05:15:13.847Z,10.80
2023-02-11T05:17:42.931Z,10.60
2023-02-11T05:20:11.805Z,10.80
2023-02-11T05:22:40.706Z,10.80
2023-02-11T05:25:09.191Z,10.70
2023-02-11T05:27:37.052Z,10.80
2023-02-11T05:30:05.564Z,10.80
2023-02-11T05:32:33.673Z,10.60
2023-02-11T05:35:02.755Z,10.70
2023-02-11T05:37:30.502Z,10.90
2023-02-11T05:39:58.182Z,10.50
2023-02-11T05:42:25.932Z,10.70
2023-02-11T05:44:53.627Z,10.90
2023-02-11T05:47:21.363Z,10.80
2023-02-11T05:49:49.128Z,10.80
2023-02-11T05:52:18.262Z,11.00
2023-02-11T05:54:46.101Z,11.10
2023-02-11T05:57:14.310Z,10.90
2023-02-11T05:59:42.110Z,10.70
2023-02-11T06:02:10.360Z,11.00
2023-02-11T06:04:39.042Z,10.90
2023-02-11T06:07:06.907Z,10.90
2023-02-11T06:09:36.015Z,10.80
2023-02-11T06:12:03.734Z,10.90
2023-02-11T06:14:33.537Z,11.10
2023-02-11T06:17:01.292Z,11.00
2023-02-11T06:19:29.219Z,10.80
2023-02-11T06:21:56.993Z,11.20
2023-02-11T06:24:50.916Z,11.10
2023-02-11T06:27:14.351Z,11.20
2023-02-11T06:29:42.164Z,11.20
2023-02-11T06:32:19.555Z,11.10
2023-02-11T06:34:57.564Z,10.90
2023-02-11T06:37:25.248Z,11.10
2023-02-11T06:39:53.348Z,11.20
2023-02-11T06:42:22.443Z,11.00
2023-02-11T06:44:50.156Z,11.00
2023-02-11T06:47:17.905Z,11.10
2023-02-11T06:49:45.699Z,11.10
2023-02-11T06:52:13.420Z,10.80
2023-02-11T06:54:41.108Z,10.80
2023-02-11T06:57:08.839Z,10.70
2023-02-11T06:59:38.010Z,11.00
2023-02-11T07:02:05.855Z,11.10
2023-02-11T07:04:33.728Z,11.30
2023-02-11T07:07:01.562Z,10.90
2023-02-11T07:09:29.343Z,11.00
2023-02-11T07:11:57.078Z,10.90
2023-02-11T07:14:24.956Z,11.10
2023-02-11T07:16:54.066Z,11.10
2023-02-11T07:19:22.110Z,11.00
2023-02-11T07:21:49.813Z,11.00
2023-02-11T07:24:17.592Z,11.10
2023-02-11T07:26:45.662Z,10.90
2023-02-11T07:29:13.378Z,11.10
2023-02-11T07:31:41.341Z,10.90
2023-02-11T07:34:11.720Z,10.80
2023-02-11T07:36:39.510Z,10.80
2023-02-11T07:39:07.460Z,10.90
2023-02-11T07:41:37.708Z,10.80
2023-02-11T07:44:06.547Z,10.90
2023-02-11T07:46:35.699Z,11.00
2023-02-11T07:49:03.694Z,11.30
2023-02-11T07:51:32.796Z,11.30
2023-02-11T07:54:01.109Z,11.20
2023-02-11T07:56:30.388Z,10.90
2023-02-11T07:59:03.468Z,11.10
2023-02-11T08:01:31.986Z,11.10
2023-02-11T08:04:01.808Z,11.10
2023-02-11T08:06:33.897Z,11.10
2023-02-11T08:09:06.537Z,11.00
2023-02-11T08:11:34.668Z,11.00
2023-02-11T08:14:02.627Z,10.90
2023-02-11T08:16:32.497Z,11.00
2023-02-11T08:19:02.520Z,11.10
2023-02-11T08:21:30.636Z,11.10
2023-02-11T08:24:00.143Z,11.10
2023-02-11T08:26:30.197Z,10.70
2023-02-11T08:28:59.362Z,11.10
2023-02-11T08:31:30.019Z,10.90
2023-02-11T08:33:58.220Z,11.10
2023-02-11T08:36:29.018Z,11.30
2023-02-11T08:39:12.204Z,11.40
2023-02-11T08:41:48.792Z,11.40
2023-02-11T08:44:16.703Z,11.60
2023-02-11T08:46:44.436Z,11.30
2023-02-11T08:49:12.312Z,11.40
2023-02-11T08:51:40.033Z,11.30
2023-02-11T08:54:09.832Z,11.30
2023-02-11T08:56:38.362Z,11.10
2023-02-11T08:59:09.161Z,11.20
2023-02-11T09:01:37.050Z,11.30
2023-02-11T09:04:05.150Z,11.40
2023-02-11T09:06:33.550Z,11.40
2023-02-11T09:09:01.433Z,11.40
2023-02-11T09:11:32.738Z,11.40
2023-02-11T09:14:00.660Z,11.20
2023-02-11T09:16:32.320Z,11.10
2023-02-11T09:19:02.183Z,11.40
2023-02-11T09:21:30.731Z,11.40
2023-02-11T09:23:58.877Z,11.40
2023-02-11T09:26:28.073Z,11.40
2023-02-11T09:28:56.110Z,11.00
2023-02-11T09:31:26.181Z,11.30
2023-02-11T09:33:57.014Z,11.70
2023-02-11T09:36:26.876Z,11.70
2023-02-11T09:38:54.835Z,11.50
2023-02-11T09:41:39.312Z,11.70
2023-02-11T09:44:08.863Z,11.20
2023-02-11T09:46:38.794Z,11.00
2023-02-11T09:49:09.104Z,11.40
2023-02-11T09:51:43.202Z,11.30
2023-02-11T09:54:16.505Z,11.70
2023-02-11T09:56:44.254Z,11.50
2023-02-11T09:59:14.829Z,11.30
2023-02-11T10:01:48.268Z,11.70
2023-02-11T10:04:31.656Z,11.50
2023-02-11T10:07:08.589Z,11.60
2023-02-11T10:09:50.424Z,11.80
2023-02-11T10:12:32.213Z,11.60
2023-02-11T10:15:16.868Z,11.90
2023-02-11T10:18:02.898Z,11.80
2023-02-11T10:20:37.651Z,12.00
2023-02-11T10:23:14.740Z,11.60
2023-02-11T10:25:45.774Z,11.80
2023-02-11T10:28:16.943Z,11.50
2023-02-11T10:30:58.771Z,11.60
2023-02-11T10:33:30.401Z,11.90
2023-02-11T10:35:59.644Z,11.80
2023-02-11T10:38:28.421Z,11.70
2023-02-11T10:40:56.220Z,11.90
2023-02-11T10:43:27.639Z,11.70
2023-02-11T10:45:57.044Z,11.60
2023-02-11T10:48:43.602Z,11.60
2023-02-11T10:51:22.640Z,11.70
2023-02-11T10:53:52.595Z,11.90
2023-02-11T10:56:28.377Z,11.90
2023-02-11T10:58:59.862Z,11.70
2023-02-11T11:01:44.768Z,11.80
2023-02-11T11:04:36.481Z,11.70
2023-02-11T11:07:15.532Z,11.80
2023-02-11T11:09:55.020Z,11.70
2023-02-11T11:12:41.847Z,11.50
2023-02-11T11:15:21.725Z,11.70
2023-02-11T11:17:50.299Z,11.90
2023-02-11T11:20:27.238Z,11.80
2023-02-11T11:23:13.110Z,11.70
2023-02-11T11:25:43.925Z,11.90
2023-02-11T11:28:22.785Z,11.90
2023-02-11T11:30:52.053Z,11.90
2023-02-11T11:33:22.962Z,11.90
2023-02-11T11:36:03.497Z,11.80
2023-02-11T11:38:34.277Z,11.80
2023-02-11T11:41:21.972Z,11.70
2023-02-11T11:43:58.136Z,11.90
2023-02-11T11:46:31.584Z,12.00
2023-02-11T11:49:24.134Z,11.90
2023-02-11T11:52:00.783Z,11.90
2023-02-11T11:54:32.712Z,11.70
2023-02-11T11:57:04.581Z,11.60
2023-02-11T11:59:33.318Z,11.90
2023-02-11T12:02:16.627Z,12.00
2023-02-11T12:05:00.258Z,12.10
2023-02-11T12:07:38.875Z,11.80
2023-02-11T12:10:32.548Z,12.10
2023-02-11T12:13:10.373Z,11.90
2023-02-11T12:15:48.273Z,11.60
2023-02-11T12:18:36.110Z,12.00
2023-02-11T12:21:16.749Z,12.20
2023-02-11T12:23:57.274Z,12.20
2023-02-11T12:26:36.795Z,12.00
2023-02-11T12:29:14.923Z,12.00
2023-02-11T12:31:57.552Z,12.30
2023-02-11T12:34:53.692Z,12.10
2023-02-11T12:37:33.638Z,12.00
2023-02-11T12:40:15.770Z,12.00
2023-02-11T12:43:17.633Z,11.90
2023-02-11T12:46:02.007Z,12.00
2023-02-11T12:49:04.242Z,11.90
2023-02-11T12:51:53.445Z,12.00
2023-02-11T12:54:29.605Z,11.80
2023-02-11T12:57:03.152Z,11.90
2023-02-11T12:59:41.608Z,11.70
2023-02-11T13:02:19.373Z,12.00
2023-02-11T13:04:51.677Z,11.90
2023-02-11T13:07:25.429Z,12.10
2023-02-11T13:09:59.041Z,12.00
2023-02-11T13:12:49.605Z,12.20
2023-02-11T13:15:19.740Z,12.00
2023-02-11T13:17:56.059Z,11.70
2023-02-11T13:20:34.503Z,11.90
2023-02-11T13:23:11.326Z,11.90
2023-02-11T13:25:44.300Z,11.90
2023-02-11T13:28:35.989Z,12.20
2023-02-11T13:31:07.752Z,12.10
2023-02-11T13:33:37.743Z,11.90
2023-02-11T13:36:17.944Z,12.00
2023-02-11T13:39:02.551Z,12.10
2023-02-11T13:41:33.368Z,12.20
2023-02-11T13:44:04.925Z,11.90
2023-02-11T13:46:59.656Z,12.10
2023-02-11T13:49:32.607Z,12.30
2023-02-11T13:52:02.420Z,12.00
2023-02-11T13:54:34.336Z,11.90
2023-02-11T13:57:34.727Z,12.20
2023-02-11T14:00:28.476Z,12.20
2023-02-11T14:03:44.402Z,12.30
2023-02-11T14:06:33.843Z,12.30
2023-02-11T14:09:26.330Z,12.20
2023-02-11T14:11:57.175Z,12.00
2023-02-11T14:14:26.424Z,12.20
2023-02-11T14:17:31.904Z,12.40
2023-02-11T14:20:04.600Z,12.50
2023-02-11T14:22:45.305Z,12.60
2023-02-11T14:25:22.935Z,12.70
2023-02-11T14:27:55.300Z,12.70
2023-02-11T14:30:33.763Z,12.50
2023-02-11T14:33:32.469Z,12.30
2023-02-11T14:36:09.665Z,12.40
2023-02-11T14:38:48.400Z,12.30
2023-02-11T14:41:23.972Z,12.60
2023-02-11T14:43:55.289Z,12.40
2023-02-11T14:46:24.591Z,12.50
2023-02-11T14:48:55.716Z,12.50
2023-02-11T14:51:28.093Z,12.40
2023-02-11T14:54:00.897Z,12.60
2023-02-11T14:56:34.279Z,12.40
2023-02-11T14:59:02.884Z,12.30
2023-02-11T15:01:33.892Z,12.50
2023-02-11T15:04:02.881Z,12.50
2023-02-11T15:06:34.760Z,12.30
2023-02-11T15:09:07.239Z,12.40
2023-02-11T15:11:39.985Z,12.60
2023-02-11T15:14:10.893Z,12.40
2023-02-11T15:16:43.788Z,12.40
2023-02-11T15:19:21.380Z,12.50
2023-02-11T15:21:51.808Z,12.50
2023-02-11T15:24:25.518Z,12.60
2023-02-11T15:26:58.286Z,12.50
2023-02-11T15:29:30.109Z,12.50
2023-02-11T15:32:13.776Z,12.50
2023-02-11T15:34:46.878Z,12.20
2023-02-11T15:37:21.880Z,12.30
2023-02-11T15:39:50.614Z,12.60
2023-02-11T15:42:27.791Z,12.40
2023-02-11T15:45:25.190Z,12.50
2023-02-11T15:47:55.528Z,12.50
2023-02-11T15:50:25.921Z,12.70
2023-02-11T15:52:57.372Z,12.30
2023-02-11T15:55:30.221Z,12.20
2023-02-11T15:58:01.003Z,12.40
2023-02-11T16:00:34.788Z,12.30
2023-02-11T16:03:03.478Z,12.30
2023-02-11T16:05:34.736Z,12.30
2023-02-11T16:08:24.582Z,12.50
2023-02-11T16:10:58.570Z,12.30
2023-02-11T16:13:28.300Z,12.50
2023-02-11T16:16:00.887Z,12.30
2023-02-11T16:18:38.699Z,12.50
2023-02-11T16:21:08.793Z,12.40
2023-02-11T16:23:42.046Z,12.40
2023-02-11T16:26:21.729Z,12.40
2023-02-11T16:28:50.195Z,12.50
2023-02-11T16:31:18.603Z,12.40
2023-02-11T16:33:46.597Z,12.50
2023-02-11T16:36:17.113Z,12.60
2023-02-11T16:38:46.297Z,12.50
2023-02-11T16:41:14.348Z,12.60
2023-02-11T16:43:42.092Z,12.70
2023-02-11T16:46:12.144Z,12.60
2023-02-11T16:48:39.912Z,12.70
2023-02-11T16:51:09.660Z,12.70
2023-02-11T16:53:37.516Z,12.80
2023-02-11T16:56:07.076Z,12.80
2023-02-11T16:58:34.878Z,12.50
2023-02-11T17:01:02.855Z,12.80
2023-02-11T17:03:35.606Z,12.80
2023-02-11T17:06:05.656Z,12.80
2023-02-11T17:08:33.702Z,12.90
2023-02-11T17:11:01.474Z,13.00
2023-02-11T17:13:30.660Z,12.70
2023-02-11T17:15:58.524Z,12.80
2023-02-11T17:18:26.285Z,12.70
2023-02-11T17:20:54.023Z,12.80
2023-02-11T17:23:21.788Z,12.90
2023-02-11T17:25:56.853Z,13.00
2023-02-11T17:28:24.648Z,13.10
2023-02-11T17:30:53.901Z,13.00
2023-02-11T17:33:21.721Z,13.10
2023-02-11T17:35:50.078Z,13.10
2023-02-11T17:38:18.232Z,13.10
2023-02-11T17:40:46.000Z,13.00
2023-02-11T17:43:13.818Z,13.10
2023-02-11T17:45:42.368Z,13.00
2023-02-11T17:48:11.649Z,13.00
2023-02-11T17:50:39.529Z,13.20
2023-02-11T17:53:07.410Z,12.60
2023-02-11T17:55:35.724Z,13.00
2023-02-11T17:58:03.594Z,13.00
2023-02-11T18:00:32.251Z,13.10
2023-02-11T18:03:02.933Z,13.10
2023-02-11T18:05:35.524Z,12.90
2023-02-11T18:08:04.337Z,12.90
2023-02-11T18:10:33.501Z,13.00
2023-02-11T18:13:03.368Z,13.10
2023-02-11T18:15:32.064Z,13.00
2023-02-11T18:17:59.847Z,12.80
2023-02-11T18:20:27.686Z,12.90
2023-02-11T18:22:56.857Z,13.00
2023-02-11T18:25:24.763Z,13.10
2023-02-11T18:27:52.738Z,13.20
2023-02-11T18:30:21.417Z,13.20
2023-02-11T18:32:49.570Z,13.10
2023-02-11T18:35:17.720Z,13.20
2023-02-11T18:37:45.603Z,13.00
2023-02-11T18:40:15.714Z,13.10
2023-02-11T18:42:43.960Z,13.10
2023-02-11T18:45:15.064Z,13.00
2023-02-11T18:47:42.889Z,13.10
2023-02-11T18:50:13.825Z,12.80
2023-02-11T18:52:41.809Z,12.90
2023-02-11T18:55:10.686Z,13.10
2023-02-11T18:57:39.901Z,13.10
2023-02-11T19:00:10.079Z,13.10
2023-02-11T19:02:38.066Z,13.20
2023-02-11T19:05:06.837Z,13.10
2023-02-11T19:07:34.530Z,13.00
2023-02-11T19:10:02.303Z,13.00
2023-02-11T19:12:30.076Z,13.20
2023-02-11T19:15:00.516Z,13.00
2023-02-11T19:17:28.479Z,13.30
2023-02-11T19:19:56.211Z,13.30
2023-02-11T19:22:24.048Z,13.20
2023-02-11T19:24:53.925Z,13.40
2023-02-11T19:27:21.708Z,13.30
2023-02-11T19:29:49.512Z,13.10
2023-02-11T19:32:18.751Z,13.00
2023-02-11T19:34:46.524Z,13.20
2023-02-11T19:37:14.522Z,13.20
2023-02-11T19:39:42.814Z,13.20
2023-02-11T19:42:10.793Z,13.20
2023-02-11T19:44:38.956Z,13.20
2023-02-11T19:47:07.707Z,13.30
2023-02-11T19:49:36.990Z,13.10
2023-02-11T19:52:05.337Z,13.20
2023-02-11T19:54:33.377Z,13.40
2023-02-11T19:57:01.357Z,13.30
2023-02-11T19:59:29.300Z,13.30
2023-02-11T20:01:58.133Z,13.00
2023-02-11T20:04:26.146Z,13.10
2023-02-11T20:06:55.400Z,13.00
2023-02-11T20:09:23.392Z,13.00
2023-02-11T20:11:51.883Z,13.10
2023-02-11T20:14:20.090Z,13.10
2023-02-11T20:16:49.980Z,13.10
2023-02-11T20:19:19.955Z,12.90
2023-02-11T20:21:49.580Z,13.20
2023-02-11T20:24:19.712Z,13.20
2023-02-11T20:26:48.711Z,13.10
2023-02-11T20:29:17.068Z,12.90
2023-02-11T20:31:45.388Z,13.00
2023-02-11T20:34:13.410Z,12.90
2023-02-11T20:36:41.553Z,13.00
2023-02-11T20:39:11.371Z,13.10
2023-02-11T20:41:40.778Z,13.00
2023-02-11T20:44:11.576Z,13.00
2023-02-11T20:46:41.342Z,12.80
2023-02-11T20:49:10.871Z,13.00
2023-02-11T20:51:38.857Z,13.00
2023-02-11T20:54:07.614Z,12.70
2023-02-11T20:56:37.537Z,12.90
2023-02-11T20:59:07.869Z,13.00
2023-02-11T21:01:36.985Z,12.90
2023-02-11T21:04:06.566Z,12.80
2023-02-11T21:06:36.857Z,12.80
2023-02-11T21:09:05.488Z,12.90
2023-02-11T21:11:34.179Z,12.90
2023-02-11T21:14:03.324Z,13.00
2023-02-11T21:16:33.327Z,12.90
2023-02-11T21:19:02.802Z,13.00
2023-02-11T21:21:31.592Z,13.00
2023-02-11T21:23:59.378Z,13.20
2023-02-11T21:26:27.315Z,13.20
2023-02-11T21:28:55.221Z,13.20
2023-02-11T21:31:24.862Z,13.30
2023-02-11T21:33:55.085Z,13.20
2023-02-11T21:36:23.626Z,13.00
2023-02-11T21:38:52.824Z,13.10
2023-02-11T21:41:22.650Z,13.10
2023-02-11T21:43:52.157Z,13.20
2023-02-11T21:46:20.833Z,13.20
2023-02-11T21:48:49.452Z,13.20
2023-02-11T21:51:20.393Z,13.10
2023-02-11T21:53:48.626Z,13.10
2023-02-11T21:56:18.577Z,13.00
2023-02-11T21:58:47.012Z,13.00
2023-02-11T22:01:16.000Z,13.10
2023-02-11T22:03:44.448Z,13.10
2023-02-11T22:06:14.591Z,13.10
2023-02-11T22:08:43.706Z,13.20
2023-02-11T22:11:13.104Z,12.90
2023-02-11T22:13:41.648Z,13.10
2023-02-11T22:16:12.470Z,13.10
2023-02-11T22:18:40.499Z,13.10
2023-02-11T22:21:11.014Z,13.10
2023-02-11T22:23:40.049Z,13.20
2023-02-11T22:26:11.416Z,13.30
2023-02-11T22:28:40.810Z,13.20
2023-02-11T22:31:12.079Z,13.30
2023-02-11T22:33:39.957Z,13.40
2023-02-11T22:36:12.372Z,13.30
2023-02-11T22:38:40.140Z,13.30
2023-02-11T22:41:10.814Z,13.20
2023-02-11T22:43:39.163Z,13.20
2023-02-11T22:46:08.457Z,13.20
2023-02-11T22:48:37.002Z,13.10
2023-02-11T22:51:06.003Z,13.10
2023-02-11T22:53:33.919Z,13.00
2023-02-11T22:56:05.907Z,13.20
2023-02-11T22:58:35.392Z,13.10
2023-02-11T23:01:03.339Z,13.10
2023-02-11T23:03:31.238Z,13.20
2023-02-11T23:05:59.812Z,12.90
2023-02-11T23:08:28.468Z,13.10
2023-02-11T23:10:56.408Z,13.20
2023-02-11T23:13:24.226Z,13.00
2023-02-11T23:15:55.160Z,13.30
2023-02-11T23:18:23.261Z,13.00
2023-02-11T23:20:51.093Z,12.80
2023-02-11T23:23:18.811Z,12.80
2023-02-11T23:25:46.554Z,12.80
2023-02-11T23:28:14.318Z,12.40
2023-02-11T23:30:42.386Z,12.60
2023-02-11T23:33:11.482Z,12.40
2023-02-11T23:35:39.270Z,12.60
2023-02-11T23:38:07.043Z,12.80
2023-02-11T23:40:34.820Z,12.80
2023-02-11T23:43:02.699Z,12.70
2023-02-11T23:45:31.334Z,13.00
2023-02-11T23:47:59.159Z,13.00
2023-02-11T23:50:28.348Z,13.00
2023-02-11T23:52:56.144Z,13.10
2023-02-11T23:55:23.923Z,13.20
2023-02-11T23:57:51.684Z,13.20
